Time;durP1;ratioP1;P1;durP2;ratioP2;P2;SDS_P1;SDS_P2;PMS_P1;PMS_P2;Temp;Humidity;BMP_temperature;BMP_pressure;BME280_temperature;BME280_humidity;BME280_pressure;Samples;Min_cycle;Max_cycle;Signal;HPM_P1;HPM_P2
2023/02/24 00:07:43;;;;;;;16.95;4.20;;;4.20;99.90;;;;;;20832667;28;20029;-80
2023/02/24 00:17:44;;;;;;;9.07;4.50;;;4.10;99.90;;;;;;20834111;28;20033;-80
2023/02/24 00:27:45;;;;;;;19.60;4.60;;;4.00;99.90;;;;;;20849252;28;20034;-80
2023/02/24 00:37:50;;;;;;;19.90;4.35;;;3.70;99.90;;;;;;20848165;28;20083;-80
2023/02/24 00:47:51;;;;;;;11.60;3.88;;;3.80;99.90;;;;;;20845718;28;20101;-81
2023/02/24 00:57:52;;;;;;;12.18;4.97;;;3.70;99.90;;;;;;20830324;28;20617;-80
2023/02/24 01:07:52;;;;;;;21.73;6.00;;;3.50;99.90;;;;;;20872457;28;20025;-80
2023/02/24 01:17:55;;;;;;;12.60;5.05;;;3.20;99.90;;;;;;20880860;28;20513;-80
2023/02/24 01:27:56;;;;;;;19.38;5.53;;;3.40;99.90;;;;;;20825626;28;20059;-80
2023/02/24 01:37:58;;;;;;;20.13;6.15;;;3.30;99.90;;;;;;20823848;28;20088;-80
2023/02/24 01:48:04;;;;;;;16.20;5.90;;;3.10;99.90;;;;;;20840449;28;20037;-80
2023/02/24 01:58:11;;;;;;;23.77;5.70;;;3.00;99.90;;;;;;20739745;28;20041;-80
2023/02/24 02:08:13;;;;;;;15.55;6.00;;;3.10;99.90;;;;;;20740916;28;20083;-80
2023/02/24 02:18:25;;;;;;;17.27;5.20;;;3.00;99.90;;;;;;20739503;28;20030;-81
2023/02/24 02:29:10;;;;;;;15.60;6.05;;;3.00;99.90;;;;;;20756191;28;20040;-80
2023/02/24 02:39:35;;;;;;;21.70;6.78;;;2.90;99.90;;;;;;20754118;28;20041;-80
2023/02/24 02:49:44;;;;;;;15.95;5.40;;;2.90;99.90;;;;;;20768354;28;20440;-79
2023/02/24 02:59:52;;;;;;;16.58;6.10;;;2.80;99.90;;;;;;20754712;28;20089;-80
2023/02/24 03:09:55;;;;;;;19.45;5.57;;;2.60;99.90;;;;;;20753302;28;20038;-80
2023/02/24 03:20:16;;;;;;;12.32;5.85;;;2.60;99.90;;;;;;20796865;28;20037;-80
2023/02/24 03:30:20;;;;;;;18.30;5.63;;;2.70;99.90;;;;;;20815857;28;20128;-80
2023/02/24 03:40:27;;;;;;;18.00;6.18;;;2.60;99.90;;;;;;20813841;28;20057;-79
2023/02/24 03:50:31;;;;;;;24.20;6.47;;;2.50;99.90;;;;;;20812823;28;20053;-80
2023/02/24 04:00:41;;;;;;;11.68;4.82;;;2.60;99.90;;;;;;20838067;28;20034;-80
2023/02/24 04:10:52;;;;;;;24.20;6.15;;;2.50;99.90;;;;;;20839780;28;20029;-80
2023/02/24 04:20:59;;;;;;;15.93;7.32;;;2.60;99.90;;;;;;20838701;28;20029;-80
2023/02/24 04:31:05;;;;;;;14.40;6.40;;;2.70;99.90;;;;;;20839088;28;20121;-79
2023/02/24 04:41:08;;;;;;;14.75;5.60;;;2.60;99.90;;;;;;20835678;28;20065;-80
2023/02/24 04:51:09;;;;;;;23.05;6.95;;;2.50;99.90;;;;;;20812865;28;20492;-77
2023/02/24 05:01:10;;;;;;;18.48;5.82;;;2.50;99.90;;;;;;20893121;28;20044;-76
2023/02/24 05:11:15;;;;;;;21.58;6.13;;;2.70;99.90;;;;;;20913396;28;20041;-78
2023/02/24 05:21:34;;;;;;;10.50;5.18;;;2.70;99.90;;;;;;20832556;28;20034;-78
2023/02/24 05:31:36;;;;;;;22.23;6.38;;;2.40;99.90;;;;;;20852818;28;20041;-76
2023/02/24 05:41:41;;;;;;;22.73;6.53;;;2.50;99.90;;;;;;20916962;28;20033;-77
2023/02/24 05:51:53;;;;;;;21.98;5.97;;;2.50;99.90;;;;;;20839012;28;20048;-77
2023/02/24 06:01:54;;;;;;;24.15;6.45;;;2.70;99.90;;;;;;20832951;28;20037;-76
2023/02/24 06:11:55;;;;;;;33.05;8.10;;;2.60;99.90;;;;;;20832190;28;20037;-77
2023/02/24 06:21:56;;;;;;;23.83;7.05;;;2.50;99.90;;;;;;20909962;28;20031;-77
2023/02/24 06:31:57;;;;;;;29.38;8.27;;;2.50;99.90;;;;;;20830756;28;20049;-80
2023/02/24 06:42:02;;;;;;;26.90;7.30;;;2.50;99.90;;;;;;20894221;28;20032;-81
2023/02/24 06:52:04;;;;;;;25.15;10.20;;;2.70;99.90;;;;;;20826210;28;20034;-78
2023/02/24 07:02:09;;;;;;;31.73;9.20;;;2.80;99.90;;;;;;20835447;28;20037;-80
2023/02/24 07:12:11;;;;;;;27.60;8.65;;;2.80;99.90;;;;;;20836041;28;20548;-81
2023/02/24 07:22:15;;;;;;;24.55;7.22;;;3.20;99.90;;;;;;20836021;28;20033;-79
2023/02/24 07:32:21;;;;;;;33.67;13.30;;;4.00;99.90;;;;;;20815230;28;20033;-80
2023/02/24 07:42:21;;;;;;;39.15;15.32;;;4.30;99.90;;;;;;20832507;28;20523;-80
2023/02/24 07:52:31;;;;;;;24.73;9.43;;;5.10;99.90;;;;;;20813761;28;20052;-79
2023/02/24 08:02:33;;;;;;;17.83;6.13;;;5.10;99.90;;;;;;20814199;28;20528;-80
2023/02/24 08:12:34;;;;;;;11.75;5.70;;;5.00;99.90;;;;;;20814352;28;20041;-80
2023/02/24 08:22:36;;;;;;;15.32;6.05;;;5.80;99.90;;;;;;20831800;28;20388;-80
2023/02/24 08:32:42;;;;;;;42.10;16.08;;;6.80;99.90;;;;;;20845387;28;20033;-79
2023/02/24 08:42:43;;;;;;;20.27;7.18;;;7.30;99.90;;;;;;20839218;28;20044;-80
2023/02/24 08:52:44;;;;;;;14.67;6.70;;;7.00;99.90;;;;;;20846176;28;20034;-81
2023/02/24 09:02:44;;;;;;;12.40;6.37;;;7.00;99.90;;;;;;20828315;28;20821;-81
2023/02/24 09:12:47;;;;;;;12.10;6.10;;;8.40;99.90;;;;;;20847014;28;20390;-81
2023/02/24 09:23:06;;;;;;;16.02;6.80;;;9.40;99.90;;;;;;20883899;28;20399;-80
2023/02/24 09:33:07;;;;;;;20.38;8.00;;;9.80;99.90;;;;;;20926957;28;20519;-79
2023/02/24 09:43:29;;;;;;;;;;;9.10;99.90;;;;;;20927336;28;20029;-81
2023/02/24 09:53:37;;;;;;;14.73;6.57;;;10.50;99.90;;;;;;20854372;28;20003;-81
2023/02/24 10:03:47;;;;;;;14.57;6.13;;;11.20;99.90;;;;;;20825605;28;20037;-81
2023/02/24 10:13:53;;;;;;;20.15;7.55;;;12.10;99.90;;;;;;20843474;28;20036;-83
2023/02/24 10:24:07;;;;;;;17.13;5.93;;;13.20;99.90;;;;;;20843391;28;20064;-82
2023/02/24 10:34:24;;;;;;;11.05;6.07;;;14.20;99.90;;;;;;20842876;28;20497;-80
2023/02/24 10:44:35;;;;;;;21.58;7.03;;;14.10;99.90;;;;;;20843526;28;20064;-81
2023/02/24 10:55:04;;;;;;;13.77;6.47;;;16.30;99.90;;;;;;20921624;28;20166;-80
2023/02/24 11:25:59;;;;;;;16.80;6.45;;;16.10;99.90;;;;;;20838333;28;20099;-80
2023/02/24 11:36:24;;;;;;;14.43;5.82;;;16.00;99.90;;;;;;20839101;28;20508;-80
2023/02/24 11:46:45;;;;;;;16.27;6.10;;;15.70;99.90;;;;;;20836677;28;20041;-80
2023/02/24 11:56:53;;;;;;;31.63;6.57;;;14.80;99.90;;;;;;20820650;28;20045;-80
2023/02/24 12:07:04;;;;;;;17.70;5.03;;;14.40;99.90;;;;;;20839672;28;20492;-81
2023/02/24 12:17:28;;;;;;;16.23;4.47;;;15.00;99.90;;;;;;20843675;28;20037;-80
2023/02/24 12:27:57;;;;;;;18.75;4.25;;;14.30;99.90;;;;;;20830112;28;20033;-79
2023/02/24 12:38:20;;;;;;;15.93;4.43;;;15.20;99.90;;;;;;20846668;28;20042;-79
2023/02/24 12:48:27;;;;;;;;;;;15.50;99.90;;;;;;20846117;28;20527;-79
2023/02/24 12:58:33;;;;;;;18.10;4.63;;;15.70;99.90;;;;;;20825619;28;19932;-78
2023/02/24 13:09:02;;;;;;;18.80;4.45;;;15.40;99.90;;;;;;20843463;28;20087;-79
2023/02/24 13:19:20;;;;;;;26.92;5.10;;;15.50;99.90;;;;;;20843352;28;20081;-78
2023/02/24 13:29:21;;;;;;;23.10;5.82;;;15.10;99.90;;;;;;20841120;28;20476;-78
2023/02/24 13:39:37;;;;;;;20.60;5.23;;;15.10;99.90;;;;;;20841205;28;20068;-80
2023/02/24 13:49:54;;;;;;;23.63;4.95;;;15.30;99.90;;;;;;20842668;28;20044;-80
2023/02/24 14:00:25;;;;;;;12.20;4.03;;;16.50;99.90;;;;;;20839766;28;20504;-80
2023/02/24 14:10:29;;;;;;;22.73;6.53;;;16.60;99.90;;;;;;20849507;28;20106;-79
2023/02/24 14:20:32;;;;;;;20.50;4.95;;;15.40;99.90;;;;;;20857304;28;20061;-80
2023/02/24 14:30:35;;;;;;;25.17;4.93;;;15.60;99.90;;;;;;20739541;28;20044;-80
2023/02/24 14:40:36;;;;;;;25.25;6.03;;;14.70;99.90;;;;;;20832315;28;20043;-79
2023/02/24 14:50:37;;;;;;;22.00;5.87;;;14.10;99.90;;;;;;20875418;28;20053;-79
2023/02/24 15:00:46;;;;;;;25.50;5.50;;;13.40;99.90;;;;;;20893772;28;20507;-80
2023/02/24 15:10:46;;;;;;;25.95;6.03;;;13.30;99.90;;;;;;20908233;28;20040;-79
2023/02/24 15:21:02;;;;;;;21.83;5.97;;;13.00;99.90;;;;;;20863736;28;20100;-79
2023/02/24 15:31:17;;;;;;;23.67;6.75;;;12.60;99.90;;;;;;20831397;28;20033;-79
2023/02/24 15:41:18;;;;;;;20.85;7.82;;;12.40;99.90;;;;;;20813784;28;20076;-79
2023/02/24 15:51:37;;;;;;;15.73;5.00;;;12.10;99.90;;;;;;20810634;28;20416;-77
2023/02/24 16:01:38;;;;;;;20.65;6.22;;;11.70;99.90;;;;;;20743379;28;20025;-77
2023/02/24 16:11:41;;;;;;;23.20;5.50;;;11.10;99.90;;;;;;20790535;28;20040;-77
2023/02/24 16:21:43;;;;;;;19.00;4.97;;;11.00;99.90;;;;;;20822112;28;20033;-77
2023/02/24 16:31:43;;;;;;;18.10;5.57;;;11.70;99.90;;;;;;20767492;28;20042;-78
2023/02/24 16:41:44;;;;;;;18.67;5.80;;;10.80;99.90;;;;;;20806912;28;20029;-79
2023/02/24 16:51:45;;;;;;;23.17;5.67;;;10.40;99.90;;;;;;20789028;28;20022;-78
2023/02/24 17:01:46;;;;;;;13.30;4.80;;;10.50;99.90;;;;;;20797227;28;20022;-78
2023/02/24 17:11:47;;;;;;;23.10;5.73;;;10.10;99.90;;;;;;20815956;28;20068;-79
2023/02/24 17:21:48;;;;;;;12.73;5.10;;;9.60;99.90;;;;;;20792270;28;20468;-78
2023/02/24 17:31:48;;;;;;;17.37;5.40;;;9.60;99.90;;;;;;20760253;28;20056;-78
2023/02/24 17:41:49;;;;;;;27.27;6.97;;;9.30;99.90;;;;;;20774403;28;20033;-78
2023/02/24 17:51:50;;;;;;;17.00;6.70;;;9.00;99.90;;;;;;20841909;28;20435;-78
2023/02/24 18:01:51;;;;;;;22.37;6.50;;;8.90;99.90;;;;;;20841439;28;20041;-79
2023/02/24 18:11:51;;;;;;;23.93;8.07;;;8.80;99.90;;;;;;20841866;28;20034;-78
2023/02/24 18:21:52;;;;;;;27.67;8.20;;;9.00;99.90;;;;;;20842052;28;20029;-77
2023/02/24 18:31:53;;;;;;;21.40;7.60;;;9.20;99.90;;;;;;20839537;28;20033;-77
2023/02/24 18:41:54;;;;;;;25.50;9.10;;;9.20;99.90;;;;;;20839017;28;20488;-77
2023/02/24 18:51:55;;;;;;;;;;;9.20;99.90;;;;;;20835512;28;20108;-76
2023/02/24 19:01:56;;;;;;;24.17;9.70;;;9.20;99.90;;;;;;20833710;28;19913;-78
2023/02/24 19:11:57;;;;;;;31.47;10.57;;;9.30;99.90;;;;;;20832175;28;20037;-77
2023/02/24 19:21:57;;;;;;;30.03;11.10;;;9.20;99.90;;;;;;20817825;28;20445;-77
2023/02/24 19:31:58;;;;;;;43.93;15.83;;;9.20;99.90;;;;;;20813511;28;20038;-77
2023/02/24 19:41:59;;;;;;;36.70;13.40;;;9.20;99.90;;;;;;20762401;28;20067;-77
2023/02/24 19:52:00;;;;;;;39.20;12.77;;;9.20;99.90;;;;;;20832021;28;20500;-78
2023/02/24 20:02:01;;;;;;;27.73;10.90;;;9.20;99.90;;;;;;20812454;28;20036;-77
2023/02/24 20:12:01;;;;;;;36.57;13.03;;;9.30;99.90;;;;;;20791525;28;20026;-77
2023/02/24 20:22:03;;;;;;;27.10;11.37;;;9.40;99.90;;;;;;20802276;28;20030;-77
2023/02/24 20:32:04;;;;;;;35.40;11.68;;;9.30;99.90;;;;;;20815158;28;20045;-76
2023/02/24 20:42:05;;;;;;;30.10;9.53;;;9.20;99.90;;;;;;20801464;28;20025;-77
2023/02/24 20:52:05;;;;;;;24.23;8.80;;;9.10;99.90;;;;;;20818670;28;20029;-77
2023/02/24 21:02:09;;;;;;;26.33;8.50;;;9.00;99.90;;;;;;20850554;28;20033;-78
2023/02/24 21:12:10;;;;;;;31.92;8.88;;;9.00;99.90;;;;;;20815654;28;20117;-78
2023/02/24 21:22:11;;;;;;;19.73;8.20;;;9.00;99.90;;;;;;20800823;28;20029;-77
2023/02/24 21:32:11;;;;;;;29.20;8.93;;;9.00;99.90;;;;;;20800408;28;20056;-77
2023/02/24 21:42:12;;;;;;;27.37;9.93;;;8.90;99.90;;;;;;20792704;28;20034;-76
2023/02/24 21:52:13;;;;;;;28.67;8.50;;;8.80;99.90;;;;;;20794748;28;20117;-77
2023/02/24 22:02:15;;;;;;;29.00;9.53;;;8.70;99.90;;;;;;20801903;28;20520;-79
2023/02/24 22:12:16;;;;;;;23.35;9.80;;;8.60;99.90;;;;;;20793960;28;20030;-78
2023/02/24 22:22:17;;;;;;;24.80;10.93;;;8.60;99.90;;;;;;20773883;28;20033;-77
2023/02/24 22:32:18;;;;;;;34.17;12.13;;;8.40;99.90;;;;;;20838926;28;20033;-77
2023/02/24 22:42:18;;;;;;;29.77;10.73;;;8.30;99.90;;;;;;20809612;28;20491;-78
2023/02/24 22:52:19;;;;;;;28.27;11.77;;;8.20;99.90;;;;;;20820094;28;20291;-77
2023/02/24 23:02:20;;;;;;;27.57;11.93;;;8.20;99.90;;;;;;20836340;28;20029;-77
2023/02/24 23:12:21;;;;;;;36.33;11.20;;;8.20;99.90;;;;;;20834721;28;20033;-77
2023/02/24 23:22:22;;;;;;;14.23;5.43;;;8.20;99.90;;;;;;20831082;28;20536;-77
2023/02/24 23:32:23;;;;;;;4.07;1.92;;;8.10;99.90;;;;;;20829592;28;20127;-77
2023/02/24 23:42:24;;;;;;;5.30;2.27;;;7.80;99.90;;;;;;20831749;28;20033;-77
2023/02/24 23:52:25;;;;;;;7.50;3.10;;;7.60;99.90;;;;;;20830987;28;20040;-77
